sensor_id;sensor_type;location;lat;lon;timestamp;noise_LAeq;noise_LA_min;noise_LA_max;noise_LA01;noise_LA95
60116;Laerm;62818;49.394;8.686;2023-03-01T00:00:21;91.17;39.08;109.20;;
60116;Laerm;62818;49.394;8.686;2023-03-01T00:01:27;90.43;40.43;109.33;;
60116;Laerm;62818;49.394;8.686;2023-03-01T00:02:28;87.17;40.53;109.29;;
60116;Laerm;62818;49.394;8.686;2023-03-01T00:03:28;91.87;39.46;109.20;;
60116;Laerm;62818;49.394;8.686;2023-03-01T00:04:29;91.21;40.43;109.39;;
60116;Laerm;62818;49.394;8.686;2023-03-01T00:05:29;91.24;39.81;109.30;;
60116;Laerm;62818;49.394;8.686;2023-03-01T00:06:30;92.04;40.33;109.37;;
60116;Laerm;62818;49.394;8.686;2023-03-01T00:07:30;91.40;41.06;108.83;;
60116;Laerm;62818;49.394;8.686;2023-03-01T00:08:32;91.54;37.87;109.51;;
60116;Laerm;62818;49.394;8.686;2023-03-01T00:09:33;90.97;39.46;109.51;;
60116;Laerm;62818;49.394;8.686;2023-03-01T00:10:33;91.50;39.92;109.42;;
60116;Laerm;62818;49.394;8.686;2023-03-01T00:11:34;89.06;39.58;109.39;;
60116;Laerm;62818;49.394;8.686;2023-03-01T00:12:35;91.50;39.70;109.50;;
60116;Laerm;62818;49.394;8.686;2023-03-01T00:13:36;91.62;40.13;109.46;;
60116;Laerm;62818;49.394;8.686;2023-03-01T00:14:37;91.38;40.79;109.38;;
60116;Laerm;62818;49.394;8.686;2023-03-01T00:15:39;90.79;40.23;109.27;;
60116;Laerm;62818;49.394;8.686;2023-03-01T00:16:43;91.88;40.62;109.35;;
60116;Laerm;62818;49.394;8.686;2023-03-01T00:17:44;90.65;39.58;109.18;;
60116;Laerm;62818;49.394;8.686;2023-03-01T00:18:44;91.50;39.08;109.54;;
60116;Laerm;62818;49.394;8.686;2023-03-01T00:19:45;92.07;39.46;109.34;;
60116;Laerm;62818;49.394;8.686;2023-03-01T00:20:53;89.40;40.53;109.26;;
60116;Laerm;62818;49.394;8.686;2023-03-01T00:21:54;91.49;45.54;109.37;;
60116;Laerm;62818;49.394;8.686;2023-03-01T00:22:55;91.58;44.73;109.08;;
60116;Laerm;62818;49.394;8.686;2023-03-01T00:23:56;92.02;44.51;109.06;;
60116;Laerm;62818;49.394;8.686;2023-03-01T00:24:57;91.95;44.83;109.40;;
60116;Laerm;62818;49.394;8.686;2023-03-01T00:25:57;91.40;44.35;109.39;;
60116;Laerm;62818;49.394;8.686;2023-03-01T00:26:58;88.71;45.45;109.38;;
60116;Laerm;62818;49.394;8.686;2023-03-01T00:27:58;91.35;44.54;109.32;;
60116;Laerm;62818;49.394;8.686;2023-03-01T00:29:00;91.37;44.69;109.43;;
60116;Laerm;62818;49.394;8.686;2023-03-01T00:30:00;90.62;44.76;109.25;;
60116;Laerm;62818;49.394;8.686;2023-03-01T00:31:13;90.90;44.34;109.25;;
60116;Laerm;62818;49.394;8.686;2023-03-01T00:32:14;90.33;44.65;109.30;;
60116;Laerm;62818;49.394;8.686;2023-03-01T00:33:14;92.05;44.58;109.33;;
60116;Laerm;62818;49.394;8.686;2023-03-01T00:34:15;91.97;44.87;109.49;;
60116;Laerm;62818;49.394;8.686;2023-03-01T00:35:16;91.36;44.39;109.26;;
60116;Laerm;62818;49.394;8.686;2023-03-01T00:36:16;90.64;44.87;109.32;;
60116;Laerm;62818;49.394;8.686;2023-03-01T00:37:17;91.85;44.43;109.45;;
60116;Laerm;62818;49.394;8.686;2023-03-01T00:38:17;90.82;44.39;109.42;;
60116;Laerm;62818;49.394;8.686;2023-03-01T00:39:18;92.16;44.69;109.16;;
60116;Laerm;62818;49.394;8.686;2023-03-01T00:40:18;91.63;44.76;109.38;;
60116;Laerm;62818;49.394;8.686;2023-03-01T00:41:20;91.46;45.04;109.41;;
60116;Laerm;62818;49.394;8.686;2023-03-01T00:42:22;91.98;44.94;109.51;;
60116;Laerm;62818;49.394;8.686;2023-03-01T00:43:23;91.59;45.07;109.19;;
60116;Laerm;62818;49.394;8.686;2023-03-01T00:44:23;89.94;44.90;109.32;;
60116;Laerm;62818;49.394;8.686;2023-03-01T00:45:24;92.08;44.54;109.33;;
60116;Laerm;62818;49.394;8.686;2023-03-01T00:46:26;91.50;44.83;109.33;;
60116;Laerm;62818;49.394;8.686;2023-03-01T00:47:29;92.39;44.76;109.33;;
60116;Laerm;62818;49.394;8.686;2023-03-01T00:48:29;90.82;45.97;109.45;;
60116;Laerm;62818;49.394;8.686;2023-03-01T00:49:30;91.25;45.54;109.34;;
60116;Laerm;62818;49.394;8.686;2023-03-01T00:50:31;90.69;45.17;109.26;;
60116;Laerm;62818;49.394;8.686;2023-03-01T00:51:32;91.44;44.45;109.24;;
60116;Laerm;62818;49.394;8.686;2023-03-01T00:52:32;90.85;44.35;109.25;;
60116;Laerm;62818;49.394;8.686;2023-03-01T00:53:33;91.42;44.54;109.36;;
60116;Laerm;62818;49.394;8.686;2023-03-01T00:54:34;91.44;45.25;109.42;;
60116;Laerm;62818;49.394;8.686;2023-03-01T00:55:35;91.37;45.57;109.35;;
60116;Laerm;62818;49.394;8.686;2023-03-01T00:56:36;91.47;44.51;109.13;;
60116;Laerm;62818;49.394;8.686;2023-03-01T00:57:37;92.03;44.76;109.34;;
60116;Laerm;62818;49.394;8.686;2023-03-01T00:58:38;91.44;44.51;109.09;;
60116;Laerm;62818;49.394;8.686;2023-03-01T00:59:39;91.42;44.76;109.29;;
60116;Laerm;62818;49.394;8.686;2023-03-01T01:00:39;90.65;46.28;109.23;;
60116;Laerm;62818;49.394;8.686;2023-03-01T01:01:40;91.49;45.30;109.33;;
60116;Laerm;62818;49.394;8.686;2023-03-01T01:02:40;90.68;45.07;109.15;;
60116;Laerm;62818;49.394;8.686;2023-03-01T01:03:41;91.37;44.97;109.38;;
60116;Laerm;62818;49.394;8.686;2023-03-01T01:04:41;89.78;45.01;109.35;;
60116;Laerm;62818;49.394;8.686;2023-03-01T01:05:42;91.47;46.71;109.30;;
60116;Laerm;62818;49.394;8.686;2023-03-01T01:06:45;91.20;45.30;109.20;;
60116;Laerm;62818;49.394;8.686;2023-03-01T01:07:47;90.68;44.69;109.34;;
60116;Laerm;62818;49.394;8.686;2023-03-01T01:08:49;87.39;45.30;109.29;;
60116;Laerm;62818;49.394;8.686;2023-03-01T01:09:50;91.45;45.11;109.38;;
60116;Laerm;62818;49.394;8.686;2023-03-01T01:10:51;91.55;44.54;109.33;;
60116;Laerm;62818;49.394;8.686;2023-03-01T01:11:51;91.38;44.80;109.15;;
60116;Laerm;62818;49.394;8.686;2023-03-01T01:12:52;91.61;44.62;109.37;;
60116;Laerm;62818;49.394;8.686;2023-03-01T01:13:53;91.60;44.76;109.28;;
60116;Laerm;62818;49.394;8.686;2023-03-01T01:14:54;92.12;44.76;109.40;;
60116;Laerm;62818;49.394;8.686;2023-03-01T01:15:54;92.00;44.76;109.52;;
60116;Laerm;62818;49.394;8.686;2023-03-01T01:16:55;90.01;44.76;109.17;;
60116;Laerm;62818;49.394;8.686;2023-03-01T01:17:55;91.54;45.80;109.53;;
60116;Laerm;62818;49.394;8.686;2023-03-01T01:18:57;92.05;44.87;109.41;;
60116;Laerm;62818;49.394;8.686;2023-03-01T01:19:57;91.65;45.01;109.38;;
60116;Laerm;62818;49.394;8.686;2023-03-01T01:21:08;91.06;44.97;108.97;;
60116;Laerm;62818;49.394;8.686;2023-03-01T01:22:09;89.61;45.51;108.98;;
60116;Laerm;62818;49.394;8.686;2023-03-01T01:23:09;92.03;44.97;109.40;;
60116;Laerm;62818;49.394;8.686;2023-03-01T01:24:11;91.34;44.80;109.47;;
60116;Laerm;62818;49.394;8.686;2023-03-01T01:25:11;50.61;45.17;59.24;;
60116;Laerm;62818;49.394;8.686;2023-03-01T01:26:17;91.77;46.95;109.40;;
60116;Laerm;62818;49.394;8.686;2023-03-01T01:27:18;91.93;45.20;109.38;;
60116;Laerm;62818;49.394;8.686;2023-03-01T01:28:18;90.82;44.97;109.39;;
60116;Laerm;62818;49.394;8.686;2023-03-01T01:29:19;90.56;45.04;109.23;;
60116;Laerm;62818;49.394;8.686;2023-03-01T01:30:19;91.98;45.01;109.41;;
60116;Laerm;62818;49.394;8.686;2023-03-01T01:31:22;92.01;44.65;109.49;;
60116;Laerm;62818;49.394;8.686;2023-03-01T01:32:23;91.41;45.69;109.23;;
60116;Laerm;62818;49.394;8.686;2023-03-01T01:33:24;90.80;45.97;109.45;;
60116;Laerm;62818;49.394;8.686;2023-03-01T01:34:25;92.23;44.51;109.37;;
60116;Laerm;62818;49.394;8.686;2023-03-01T01:35:26;91.68;44.87;109.26;;
60116;Laerm;62818;49.394;8.686;2023-03-01T01:36:28;92.02;45.48;109.44;;
60116;Laerm;62818;49.394;8.686;2023-03-01T01:37:28;92.67;45.07;109.47;;
60116;Laerm;62818;49.394;8.686;2023-03-01T01:38:31;91.96;45.04;109.34;;
60116;Laerm;62818;49.394;8.686;2023-03-01T01:39:32;90.47;45.77;109.31;;
60116;Laerm;62818;49.394;8.686;2023-03-01T01:40:32;90.97;45.54;109.49;;
60116;Laerm;62818;49.394;8.686;2023-03-01T01:41:33;92.00;45.69;109.36;;
60116;Laerm;62818;49.394;8.686;2023-03-01T01:42:34;91.24;44.43;109.42;;
60116;Laerm;62818;49.394;8.686;2023-03-01T01:43:39;92.34;44.35;109.43;;
60116;Laerm;62818;49.394;8.686;2023-03-01T01:44:46;91.55;44.73;109.19;;
60116;Laerm;62818;49.394;8.686;2023-03-01T01:45:47;91.47;45.80;109.38;;
60116;Laerm;62818;49.394;8.686;2023-03-01T01:47:07;89.74;44.83;109.24;;
60116;Laerm;62818;49.394;8.686;2023-03-01T01:48:20;91.35;45.42;109.41;;
60116;Laerm;62818;49.394;8.686;2023-03-01T01:49:36;88.92;44.62;109.04;;
60116;Laerm;62818;49.394;8.686;2023-03-01T01:50:40;91.72;44.47;109.24;;
60116;Laerm;62818;49.394;8.686;2023-03-01T01:51:45;91.83;44.51;109.33;;
60116;Laerm;62818;49.394;8.686;2023-03-01T01:52:51;91.69;44.54;109.36;;
60116;Laerm;62818;49.394;8.686;2023-03-01T01:53:59;90.39;44.51;109.28;;
60116;Laerm;62818;49.394;8.686;2023-03-01T01:55:09;90.93;44.51;109.34;;
60116;Laerm;62818;49.394;8.686;2023-03-01T01:56:15;91.63;44.54;109.30;;
60116;Laerm;62818;49.394;8.686;2023-03-01T01:57:25;91.43;44.47;109.27;;
60116;Laerm;62818;49.394;8.686;2023-03-01T01:58:30;91.15;44.51;109.29;;
60116;Laerm;62818;49.394;8.686;2023-03-01T01:59:32;91.60;44.43;109.35;;
60116;Laerm;62818;49.394;8.686;2023-03-01T02:00:34;92.54;44.54;109.45;;
60116;Laerm;62818;49.394;8.686;2023-03-01T02:01:34;92.25;44.51;109.40;;
60116;Laerm;62818;49.394;8.686;2023-03-01T02:02:36;90.76;44.27;109.36;;
60116;Laerm;62818;49.394;8.686;2023-03-01T02:03:42;90.89;44.27;109.44;;
60116;Laerm;62818;49.394;8.686;2023-03-01T02:04:46;91.05;44.39;109.30;;
60116;Laerm;62818;49.394;8.686;2023-03-01T02:06:13;89.25;44.43;109.21;;
60116;Laerm;62818;49.394;8.686;2023-03-01T02:07:22;90.22;44.43;109.36;;
60116;Laerm;62818;49.394;8.686;2023-03-01T02:08:27;91.66;44.51;109.32;;
60116;Laerm;62818;49.394;8.686;2023-03-01T02:09:31;91.84;44.51;109.11;;
60116;Laerm;62818;49.394;8.686;2023-03-01T02:10:34;92.51;44.65;109.40;;
60116;Laerm;62818;49.394;8.686;2023-03-01T02:11:36;90.51;44.23;109.17;;
60116;Laerm;62818;49.394;8.686;2023-03-01T02:12:39;92.56;44.39;109.29;;
60116;Laerm;62818;49.394;8.686;2023-03-01T02:13:40;90.78;45.01;109.30;;
60116;Laerm;62818;49.394;8.686;2023-03-01T02:14:42;90.78;44.83;108.74;;
60116;Laerm;62818;49.394;8.686;2023-03-01T02:15:43;90.62;45.07;109.39;;
60116;Laerm;62818;49.394;8.686;2023-03-01T02:16:44;91.71;45.23;109.08;;
60116;Laerm;62818;49.394;8.686;2023-03-01T02:17:45;90.67;45.07;109.29;;
60116;Laerm;62818;49.394;8.686;2023-03-01T02:18:46;90.75;44.76;109.15;;
60116;Laerm;62818;49.394;8.686;2023-03-01T02:20:23;89.69;44.35;109.28;;
60116;Laerm;62818;49.394;8.686;2023-03-01T02:22:32;91.41;44.69;109.13;;
60116;Laerm;62818;49.394;8.686;2023-03-01T02:23:33;90.80;44.43;109.59;;
60116;Laerm;62818;49.394;8.686;2023-03-01T02:25:54;89.22;44.73;109.26;;
60116;Laerm;62818;49.394;8.686;2023-03-01T02:26:57;89.53;44.39;109.11;;
60116;Laerm;62818;49.394;8.686;2023-03-01T02:29:13;90.17;44.47;109.05;;
60116;Laerm;62818;49.394;8.686;2023-03-01T02:30:14;91.55;44.90;109.40;;
60116;Laerm;62818;49.394;8.686;2023-03-01T02:31:19;91.13;44.87;109.44;;
60116;Laerm;62818;49.394;8.686;2023-03-01T02:32:41;89.24;44.83;109.21;;
60116;Laerm;62818;49.394;8.686;2023-03-01T02:33:43;90.42;44.43;109.38;;
60116;Laerm;62818;49.394;8.686;2023-03-01T02:34:44;89.99;44.47;108.90;;
60116;Laerm;62818;49.394;8.686;2023-03-01T02:35:45;90.86;44.47;109.31;;
60116;Laerm;62818;49.394;8.686;2023-03-01T02:36:55;90.32;44.47;109.11;;
60116;Laerm;62818;49.394;8.686;2023-03-01T02:37:56;90.65;44.19;109.32;;
60116;Laerm;62818;49.394;8.686;2023-03-01T02:39:04;89.58;44.62;109.36;;
60116;Laerm;62818;49.394;8.686;2023-03-01T02:40:13;89.45;44.54;109.34;;
60116;Laerm;62818;49.394;8.686;2023-03-01T02:41:17;89.50;44.35;109.01;;
60116;Laerm;62818;49.394;8.686;2023-03-01T02:42:25;88.60;44.35;109.22;;
60116;Laerm;62818;49.394;8.686;2023-03-01T02:43:31;90.36;44.54;109.32;;
60116;Laerm;62818;49.394;8.686;2023-03-01T02:44:32;91.19;44.69;109.05;;
60116;Laerm;62818;49.394;8.686;2023-03-01T02:45:33;91.63;45.01;109.37;;
60116;Laerm;62818;49.394;8.686;2023-03-01T02:46:34;89.93;45.48;109.33;;
60116;Laerm;62818;49.394;8.686;2023-03-01T02:47:42;90.33;45.17;109.05;;
60116;Laerm;62818;49.394;8.686;2023-03-01T02:49:18;80.96;44.80;107.18;;
60116;Laerm;62818;49.394;8.686;2023-03-01T02:50:52;87.25;44.39;109.30;;
60116;Laerm;62818;49.394;8.686;2023-03-01T02:53:29;89.97;44.23;109.35;;
60116;Laerm;62818;49.394;8.686;2023-03-01T02:54:58;83.95;44.43;108.82;;
60116;Laerm;62818;49.394;8.686;2023-03-01T02:55:59;91.29;44.73;109.39;;
60116;Laerm;62818;49.394;8.686;2023-03-01T02:57:01;90.76;44.90;109.32;;
60116;Laerm;62818;49.394;8.686;2023-03-01T02:58:03;89.94;44.39;109.14;;
60116;Laerm;62818;49.394;8.686;2023-03-01T02:59:04;90.59;44.27;109.23;;
60116;Laerm;62818;49.394;8.686;2023-03-01T03:00:15;90.12;44.19;109.30;;
60116;Laerm;62818;49.394;8.686;2023-03-01T03:01:20;90.38;44.34;109.19;;
60116;Laerm;62818;49.394;8.686;2023-03-01T03:02:28;91.69;44.51;109.19;;
60116;Laerm;62818;49.394;8.686;2023-03-01T03:03:39;89.84;44.76;109.23;;
60116;Laerm;62818;49.394;8.686;2023-03-01T03:04:39;91.46;44.73;109.36;;
60116;Laerm;62818;49.394;8.686;2023-03-01T03:05:41;90.85;45.69;109.42;;
60116;Laerm;62818;49.394;8.686;2023-03-01T03:06:41;90.88;44.43;109.49;;
60116;Laerm;62818;49.394;8.686;2023-03-01T03:07:45;89.87;44.35;109.49;;
60116;Laerm;62818;49.394;8.686;2023-03-01T03:08:46;87.25;44.43;108.79;;
60116;Laerm;62818;49.394;8.686;2023-03-01T03:09:47;89.95;44.69;109.34;;
60116;Laerm;62818;49.394;8.686;2023-03-01T03:10:47;92.07;44.73;109.48;;
60116;Laerm;62818;49.394;8.686;2023-03-01T03:11:48;90.05;44.43;109.37;;
60116;Laerm;62818;49.394;8.686;2023-03-01T03:13:10;89.59;44.62;109.27;;
60116;Laerm;62818;49.394;8.686;2023-03-01T03:14:14;87.13;45.66;108.69;;
60116;Laerm;62818;49.394;8.686;2023-03-01T03:15:15;91.65;45.07;109.50;;
60116;Laerm;62818;49.394;8.686;2023-03-01T03:16:15;89.96;44.97;109.02;;
60116;Laerm;62818;49.394;8.686;2023-03-01T03:17:16;91.58;45.14;109.51;;
60116;Laerm;62818;49.394;8.686;2023-03-01T03:18:17;90.85;45.66;109.35;;
60116;Laerm;62818;49.394;8.686;2023-03-01T03:19:18;89.56;45.39;108.80;;
60116;Laerm;62818;49.394;8.686;2023-03-01T03:20:21;53.11;46.30;60.01;;
60116;Laerm;62818;49.394;8.686;2023-03-01T03:21:22;91.38;44.35;109.31;;
60116;Laerm;62818;49.394;8.686;2023-03-01T03:22:22;90.85;44.27;109.21;;
60116;Laerm;62818;49.394;8.686;2023-03-01T03:23:23;91.41;44.73;109.39;;
60116;Laerm;62818;49.394;8.686;2023-03-01T03:24:24;90.84;44.51;109.38;;
60116;Laerm;62818;49.394;8.686;2023-03-01T03:25:26;89.84;44.73;109.24;;
60116;Laerm;62818;49.394;8.686;2023-03-01T03:26:28;88.80;44.97;109.22;;
60116;Laerm;62818;49.394;8.686;2023-03-01T03:27:28;90.01;44.35;109.43;;
60116;Laerm;62818;49.394;8.686;2023-03-01T03:28:33;91.33;44.58;109.40;;
60116;Laerm;62818;49.394;8.686;2023-03-01T03:29:34;90.79;44.80;109.38;;
60116;Laerm;62818;49.394;8.686;2023-03-01T03:30:38;89.68;44.58;109.16;;
60116;Laerm;62818;49.394;8.686;2023-03-01T03:31:39;90.64;45.60;109.43;;
60116;Laerm;62818;49.394;8.686;2023-03-01T03:32:42;91.36;46.82;109.36;;
60116;Laerm;62818;49.394;8.686;2023-03-01T03:33:43;87.51;45.54;109.20;;
60116;Laerm;62818;49.394;8.686;2023-03-01T03:34:43;91.67;46.78;109.37;;
60116;Laerm;62818;49.394;8.686;2023-03-01T03:35:47;88.74;46.25;109.29;;
60116;Laerm;62818;49.394;8.686;2023-03-01T03:36:48;88.61;45.75;108.89;;
60116;Laerm;62818;49.394;8.686;2023-03-01T03:37:48;90.92;46.10;109.09;;
60116;Laerm;62818;49.394;8.686;2023-03-01T03:39:01;90.22;45.11;109.27;;
60116;Laerm;62818;49.394;8.686;2023-03-01T03:40:02;90.03;44.94;109.52;;
60116;Laerm;62818;49.394;8.686;2023-03-01T03:41:07;89.93;45.11;109.57;;
60116;Laerm;62818;49.394;8.686;2023-03-01T03:42:07;90.97;45.30;109.53;;
60116;Laerm;62818;49.394;8.686;2023-03-01T03:43:22;88.41;44.80;109.28;;
60116;Laerm;62818;49.394;8.686;2023-03-01T03:44:23;90.82;44.83;109.40;;
60116;Laerm;62818;49.394;8.686;2023-03-01T03:45:23;91.75;44.51;109.61;;
60116;Laerm;62818;49.394;8.686;2023-03-01T03:46:24;90.14;44.95;109.40;;
60116;Laerm;62818;49.394;8.686;2023-03-01T03:47:24;91.06;44.94;109.34;;
60116;Laerm;62818;49.394;8.686;2023-03-01T03:48:26;90.01;44.76;109.12;;
60116;Laerm;62818;49.394;8.686;2023-03-01T03:49:26;90.89;45.57;109.51;;
60116;Laerm;62818;49.394;8.686;2023-03-01T03:50:27;91.64;45.04;109.56;;
60116;Laerm;62818;49.394;8.686;2023-03-01T03:51:27;92.36;45.45;109.47;;
60116;Laerm;62818;49.394;8.686;2023-03-01T03:52:28;89.86;45.75;109.48;;
60116;Laerm;62818;49.394;8.686;2023-03-01T03:53:29;90.96;45.51;109.56;;
60116;Laerm;62818;49.394;8.686;2023-03-01T03:54:29;92.44;44.62;109.53;;
60116;Laerm;62818;49.394;8.686;2023-03-01T03:55:30;90.87;45.42;109.55;;
60116;Laerm;62818;49.394;8.686;2023-03-01T03:56:31;91.28;44.94;109.34;;
60116;Laerm;62818;49.394;8.686;2023-03-01T03:57:32;91.47;44.51;109.34;;
60116;Laerm;62818;49.394;8.686;2023-03-01T03:58:32;90.86;44.69;109.49;;
60116;Laerm;62818;49.394;8.686;2023-03-01T03:59:33;90.63;45.04;109.47;;
60116;Laerm;62818;49.394;8.686;2023-03-01T04:00:37;90.65;44.73;109.19;;
60116;Laerm;62818;49.394;8.686;2023-03-01T04:01:38;90.91;44.76;109.42;;
60116;Laerm;62818;49.394;8.686;2023-03-01T04:02:40;88.98;44.82;109.34;;
60116;Laerm;62818;49.394;8.686;2023-03-01T04:03:41;90.24;44.90;109.39;;
60116;Laerm;62818;49.394;8.686;2023-03-01T04:04:49;89.44;44.97;109.47;;
60116;Laerm;62818;49.394;8.686;2023-03-01T04:05:53;90.57;45.17;109.09;;
60116;Laerm;62818;49.394;8.686;2023-03-01T04:06:53;91.40;45.23;109.56;;
60116;Laerm;62818;49.394;8.686;2023-03-01T04:07:54;90.91;45.48;109.43;;
60116;Laerm;62818;49.394;8.686;2023-03-01T04:09:07;90.20;45.14;109.36;;
60116;Laerm;62818;49.394;8.686;2023-03-01T04:10:15;90.62;45.48;109.47;;
60116;Laerm;62818;49.394;8.686;2023-03-01T04:11:15;91.61;45.48;109.57;;
60116;Laerm;62818;49.394;8.686;2023-03-01T04:12:28;89.80;45.39;109.54;;
60116;Laerm;62818;49.394;8.686;2023-03-01T04:13:28;92.34;45.66;109.56;;
60116;Laerm;62818;49.394;8.686;2023-03-01T04:14:29;91.04;46.05;109.47;;
60116;Laerm;62818;49.394;8.686;2023-03-01T04:15:31;90.81;45.51;109.57;;
60116;Laerm;62818;49.394;8.686;2023-03-01T04:16:32;91.31;45.51;109.37;;
60116;Laerm;62818;49.394;8.686;2023-03-01T04:17:33;90.96;45.39;109.50;;
60116;Laerm;62818;49.394;8.686;2023-03-01T04:18:36;92.13;45.07;109.41;;
60116;Laerm;62818;49.394;8.686;2023-03-01T04:19:37;90.13;44.80;109.50;;
60116;Laerm;62818;49.394;8.686;2023-03-01T04:20:37;91.35;44.87;109.47;;
60116;Laerm;62818;49.394;8.686;2023-03-01T04:21:38;90.80;44.97;109.36;;
60116;Laerm;62818;49.394;8.686;2023-03-01T04:22:40;91.52;44.97;109.50;;
60116;Laerm;62818;49.394;8.686;2023-03-01T04:23:41;90.86;44.83;109.46;;
60116;Laerm;62818;49.394;8.686;2023-03-01T04:24:41;92.28;45.45;109.48;;
60116;Laerm;62818;49.394;8.686;2023-03-01T04:25:53;91.56;45.63;109.41;;
60116;Laerm;62818;49.394;8.686;2023-03-01T04:26:54;90.00;45.66;109.16;;
60116;Laerm;62818;49.394;8.686;2023-03-01T04:27:54;90.94;47.34;109.56;;
60116;Laerm;62818;49.394;8.686;2023-03-01T04:28:55;92.18;46.33;109.43;;
60116;Laerm;62818;49.394;8.686;2023-03-01T04:29:56;90.92;45.75;109.42;;
60116;Laerm;62818;49.394;8.686;2023-03-01T04:30:58;91.34;47.18;109.15;;
60116;Laerm;62818;49.394;8.686;2023-03-01T04:31:58;89.70;47.30;109.41;;
60116;Laerm;62818;49.394;8.686;2023-03-01T04:32:59;91.57;45.97;109.43;;
60116;Laerm;62818;49.394;8.686;2023-03-01T04:33:59;91.57;48.48;109.52;;
60116;Laerm;62818;49.394;8.686;2023-03-01T04:35:00;90.11;45.72;109.47;;
60116;Laerm;62818;49.394;8.686;2023-03-01T04:36:01;91.63;45.17;109.49;;
60116;Laerm;62818;49.394;8.686;2023-03-01T04:37:05;91.35;45.75;109.49;;
60116;Laerm;62818;49.394;8.686;2023-03-01T04:38:06;90.84;45.75;109.21;;
60116;Laerm;62818;49.394;8.686;2023-03-01T04:39:07;92.29;45.89;109.40;;
60116;Laerm;62818;49.394;8.686;2023-03-01T04:40:12;90.44;45.83;109.49;;
60116;Laerm;62818;49.394;8.686;2023-03-01T04:41:19;91.22;45.99;109.50;;
60116;Laerm;62818;49.394;8.686;2023-03-01T04:42:20;90.01;45.63;109.41;;
60116;Laerm;62818;49.394;8.686;2023-03-01T04:43:21;92.04;46.62;109.43;;
60116;Laerm;62818;49.394;8.686;2023-03-01T04:44:21;90.08;46.52;109.50;;
60116;Laerm;62818;49.394;8.686;2023-03-01T04:45:22;90.96;46.25;109.53;;
60116;Laerm;62818;49.394;8.686;2023-03-01T04:46:23;92.24;46.40;109.41;;
60116;Laerm;62818;49.394;8.686;2023-03-01T04:47:23;91.60;45.86;109.50;;
60116;Laerm;62818;49.394;8.686;2023-03-01T04:48:24;90.12;45.60;109.37;;
60116;Laerm;62818;49.394;8.686;2023-03-01T04:49:24;90.86;45.72;109.47;;
60116;Laerm;62818;49.394;8.686;2023-03-01T04:50:25;91.63;45.42;109.65;;
60116;Laerm;62818;49.394;8.686;2023-03-01T04:51:25;90.98;45.39;109.37;;
60116;Laerm;62818;49.394;8.686;2023-03-01T04:52:26;91.05;45.91;109.60;;
60116;Laerm;62818;49.394;8.686;2023-03-01T04:53:27;92.13;46.38;109.51;;
60116;Laerm;62818;49.394;8.686;2023-03-01T04:54:29;58.09;45.51;70.42;;
60116;Laerm;62818;49.394;8.686;2023-03-01T04:55:30;91.45;45.45;109.43;;
60116;Laerm;62818;49.394;8.686;2023-03-01T04:56:31;61.44;47.10;80.43;;
60116;Laerm;62818;49.394;8.686;2023-03-01T04:57:32;91.49;47.28;109.28;;
60116;Laerm;62818;49.394;8.686;2023-03-01T04:58:33;91.50;47.40;109.46;;
60116;Laerm;62818;49.394;8.686;2023-03-01T04:59:34;91.66;46.35;109.48;;
60116;Laerm;62818;49.394;8.686;2023-03-01T05:00:36;91.55;45.89;109.48;;
60116;Laerm;62818;49.394;8.686;2023-03-01T05:01:36;92.21;45.31;109.36;;
60116;Laerm;62818;49.394;8.686;2023-03-01T05:02:38;90.69;46.48;109.32;;
60116;Laerm;62818;49.394;8.686;2023-03-01T05:03:38;92.37;46.15;109.49;;
60116;Laerm;62818;49.394;8.686;2023-03-01T05:04:43;90.99;45.51;109.21;;
60116;Laerm;62818;49.394;8.686;2023-03-01T05:05:47;91.55;50.34;109.49;;
60116;Laerm;62818;49.394;8.686;2023-03-01T05:06:48;90.60;48.37;109.43;;
60116;Laerm;62818;49.394;8.686;2023-03-01T05:07:48;91.72;51.32;109.33;;
60116;Laerm;62818;49.394;8.686;2023-03-01T05:08:49;90.06;47.28;109.41;;
60116;Laerm;62818;49.394;8.686;2023-03-01T05:09:53;88.80;47.16;109.51;;
60116;Laerm;62818;49.394;8.686;2023-03-01T05:10:54;91.59;46.64;109.39;;
60116;Laerm;62818;49.394;8.686;2023-03-01T05:11:55;90.08;48.61;109.39;;
60116;Laerm;62818;49.394;8.686;2023-03-01T05:12:57;92.72;55.57;109.39;;
60116;Laerm;62818;49.394;8.686;2023-03-01T05:13:57;90.00;48.32;109.44;;
60116;Laerm;62818;49.394;8.686;2023-03-01T05:14:58;90.90;46.50;109.56;;
60116;Laerm;62818;49.394;8.686;2023-03-01T05:16:01;91.44;47.72;109.28;;
60116;Laerm;62818;49.394;8.686;2023-03-01T05:17:01;88.94;47.30;109.43;;
60116;Laerm;62818;49.394;8.686;2023-03-01T05:18:04;90.77;51.52;109.33;;
60116;Laerm;62818;49.394;8.686;2023-03-01T05:19:07;90.77;46.25;109.50;;
60116;Laerm;62818;49.394;8.686;2023-03-01T05:20:15;91.16;46.89;109.40;;
60116;Laerm;62818;49.394;8.686;2023-03-01T05:21:16;92.13;45.94;109.44;;
60116;Laerm;62818;49.394;8.686;2023-03-01T05:22:17;90.86;47.16;109.55;;
60116;Laerm;62818;49.394;8.686;2023-03-01T05:23:19;89.81;46.33;109.30;;
60116;Laerm;62818;49.394;8.686;2023-03-01T05:24:19;89.94;45.86;109.30;;
60116;Laerm;62818;49.394;8.686;2023-03-01T05:25:20;91.62;47.28;109.28;;
60116;Laerm;62818;49.394;8.686;2023-03-01T05:26:21;90.84;52.60;109.50;;
60116;Laerm;62818;49.394;8.686;2023-03-01T05:27:22;90.89;48.49;109.36;;
60116;Laerm;62818;49.394;8.686;2023-03-01T05:28:22;90.84;48.70;109.39;;
60116;Laerm;62818;49.394;8.686;2023-03-01T05:29:26;88.86;49.60;109.41;;
60116;Laerm;62818;49.394;8.686;2023-03-01T05:30:26;91.59;46.55;109.48;;
60116;Laerm;62818;49.394;8.686;2023-03-01T05:31:28;88.81;48.12;109.27;;
60116;Laerm;62818;49.394;8.686;2023-03-01T05:32:30;89.88;49.38;109.45;;
60116;Laerm;62818;49.394;8.686;2023-03-01T05:33:32;90.82;48.90;109.41;;
60116;Laerm;62818;49.394;8.686;2023-03-01T05:34:35;89.40;46.62;109.09;;
60116;Laerm;62818;49.394;8.686;2023-03-01T05:35:36;90.73;45.75;109.52;;
60116;Laerm;62818;49.394;8.686;2023-03-01T05:36:36;90.61;47.04;109.46;;
60116;Laerm;62818;49.394;8.686;2023-03-01T05:37:44;89.68;46.47;109.24;;
60116;Laerm;62818;49.394;8.686;2023-03-01T05:38:45;85.39;47.16;109.11;;
60116;Laerm;62818;49.394;8.686;2023-03-01T05:39:45;91.65;48.21;109.49;;
60116;Laerm;62818;49.394;8.686;2023-03-01T05:40:48;88.75;46.84;109.32;;
60116;Laerm;62818;49.394;8.686;2023-03-01T05:41:53;90.99;48.28;109.40;;
60116;Laerm;62818;49.394;8.686;2023-03-01T05:42:56;90.26;47.76;109.04;;
60116;Laerm;62818;49.394;8.686;2023-03-01T05:43:57;88.96;47.90;108.86;;
60116;Laerm;62818;49.394;8.686;2023-03-01T05:44:57;91.39;47.44;109.39;;
60116;Laerm;62818;49.394;8.686;2023-03-01T05:45:58;91.06;46.38;109.37;;
60116;Laerm;62818;49.394;8.686;2023-03-01T05:46:58;91.66;46.78;109.32;;
60116;Laerm;62818;49.394;8.686;2023-03-01T05:47:59;89.98;50.08;109.15;;
60116;Laerm;62818;49.394;8.686;2023-03-01T05:49:00;88.47;57.50;109.15;;
60116;Laerm;62818;49.394;8.686;2023-03-01T05:50:01;90.09;48.46;109.22;;
60116;Laerm;62818;49.394;8.686;2023-03-01T05:51:02;90.87;46.55;109.14;;